sensor_id;sensor_type;location;lat;lon;timestamp;P1;durP1;ratioP1;P2;durP2;ratioP2
10473;SDS011;5284;50.446;7.904;2023-07-20T00:01:24;8.80;;;2.20;;
10473;SDS011;5284;50.446;7.904;2023-07-20T00:06:26;5.97;;;1.75;;
10473;SDS011;5284;50.446;7.904;2023-07-20T00:11:29;7.28;;;1.90;;
10473;SDS011;5284;50.446;7.904;2023-07-20T00:16:34;9.43;;;2.22;;
10473;SDS011;5284;50.446;7.904;2023-07-20T00:21:37;6.43;;;2.00;;
10473;SDS011;5284;50.446;7.904;2023-07-20T00:26:42;6.05;;;1.50;;
10473;SDS011;5284;50.446;7.904;2023-07-20T00:31:46;4.38;;;1.95;;
10473;SDS011;5284;50.446;7.904;2023-07-20T00:36:52;13.20;;;2.63;;
10473;SDS011;5284;50.446;7.904;2023-07-20T00:41:57;7.32;;;2.25;;
10473;SDS011;5284;50.446;7.904;2023-07-20T00:47:01;9.38;;;2.17;;
10473;SDS011;5284;50.446;7.904;2023-07-20T00:52:07;5.15;;;2.00;;
10473;SDS011;5284;50.446;7.904;2023-07-20T00:57:13;3.72;;;2.03;;
10473;SDS011;5284;50.446;7.904;2023-07-20T01:02:18;4.35;;;2.28;;
10473;SDS011;5284;50.446;7.904;2023-07-20T01:07:23;4.65;;;1.73;;
10473;SDS011;5284;50.446;7.904;2023-07-20T01:17:36;4.75;;;2.22;;
10473;SDS011;5284;50.446;7.904;2023-07-20T01:22:46;9.55;;;3.25;;
10473;SDS011;5284;50.446;7.904;2023-07-20T01:28:04;14.88;;;4.03;;
10473;SDS011;5284;50.446;7.904;2023-07-20T01:33:29;10.60;;;3.17;;
10473;SDS011;5284;50.446;7.904;2023-07-20T01:38:35;9.93;;;2.33;;
10473;SDS011;5284;50.446;7.904;2023-07-20T01:43:38;7.93;;;4.20;;
10473;SDS011;5284;50.446;7.904;2023-07-20T01:48:43;17.58;;;4.93;;
10473;SDS011;5284;50.446;7.904;2023-07-20T01:53:46;17.25;;;3.75;;
10473;SDS011;5284;50.446;7.904;2023-07-20T01:58:49;5.97;;;3.47;;
10473;SDS011;5284;50.446;7.904;2023-07-20T02:03:53;11.63;;;3.40;;
10473;SDS011;5284;50.446;7.904;2023-07-20T02:08:57;10.82;;;2.95;;
10473;SDS011;5284;50.446;7.904;2023-07-20T02:14:00;9.07;;;2.83;;
10473;SDS011;5284;50.446;7.904;2023-07-20T02:19:04;9.82;;;3.35;;
10473;SDS011;5284;50.446;7.904;2023-07-20T02:24:08;7.75;;;2.80;;
10473;SDS011;5284;50.446;7.904;2023-07-20T02:29:11;8.25;;;3.30;;
10473;SDS011;5284;50.446;7.904;2023-07-20T02:34:15;5.93;;;3.20;;
10473;SDS011;5284;50.446;7.904;2023-07-20T02:39:20;6.85;;;3.67;;
10473;SDS011;5284;50.446;7.904;2023-07-20T02:44:23;10.85;;;3.03;;
10473;SDS011;5284;50.446;7.904;2023-07-20T02:49:27;7.63;;;3.40;;
10473;SDS011;5284;50.446;7.904;2023-07-20T02:54:30;6.60;;;3.33;;
10473;SDS011;5284;50.446;7.904;2023-07-20T02:59:33;8.07;;;3.22;;
10473;SDS011;5284;50.446;7.904;2023-07-20T03:04:37;7.25;;;3.17;;
10473;SDS011;5284;50.446;7.904;2023-07-20T03:09:40;12.65;;;2.97;;
10473;SDS011;5284;50.446;7.904;2023-07-20T03:14:44;7.82;;;3.03;;
10473;SDS011;5284;50.446;7.904;2023-07-20T03:19:49;9.07;;;3.47;;
10473;SDS011;5284;50.446;7.904;2023-07-20T03:24:52;5.82;;;3.20;;
10473;SDS011;5284;50.446;7.904;2023-07-20T03:29:55;5.00;;;2.78;;
10473;SDS011;5284;50.446;7.904;2023-07-20T03:34:59;11.05;;;3.67;;
10473;SDS011;5284;50.446;7.904;2023-07-20T03:40:02;4.50;;;2.50;;
10473;SDS011;5284;50.446;7.904;2023-07-20T03:45:07;3.88;;;2.08;;
10473;SDS011;5284;50.446;7.904;2023-07-20T03:50:12;5.88;;;2.17;;
10473;SDS011;5284;50.446;7.904;2023-07-20T03:55:15;8.80;;;3.00;;
10473;SDS011;5284;50.446;7.904;2023-07-20T04:00:18;6.47;;;3.00;;
10473;SDS011;5284;50.446;7.904;2023-07-20T04:05:22;8.00;;;3.45;;
10473;SDS011;5284;50.446;7.904;2023-07-20T04:10:25;3.92;;;2.30;;
10473;SDS011;5284;50.446;7.904;2023-07-20T04:15:28;7.78;;;2.28;;
10473;SDS011;5284;50.446;7.904;2023-07-20T04:20:33;6.45;;;2.97;;
10473;SDS011;5284;50.446;7.904;2023-07-20T04:25:39;5.35;;;2.15;;
10473;SDS011;5284;50.446;7.904;2023-07-20T04:30:48;8.90;;;2.03;;
10473;SDS011;5284;50.446;7.904;2023-07-20T04:35:53;9.33;;;2.43;;
10473;SDS011;5284;50.446;7.904;2023-07-20T04:41:06;7.13;;;1.80;;
10473;SDS011;5284;50.446;7.904;2023-07-20T04:46:14;10.00;;;1.83;;
10473;SDS011;5284;50.446;7.904;2023-07-20T04:51:21;7.55;;;2.78;;
10473;SDS011;5284;50.446;7.904;2023-07-20T04:56:27;8.15;;;2.83;;
10473;SDS011;5284;50.446;7.904;2023-07-20T05:01:31;5.70;;;2.25;;
10473;SDS011;5284;50.446;7.904;2023-07-20T05:06:36;2.95;;;2.20;;
10473;SDS011;5284;50.446;7.904;2023-07-20T05:11:40;3.80;;;2.42;;
10473;SDS011;5284;50.446;7.904;2023-07-20T05:16:43;12.45;;;2.70;;
10473;SDS011;5284;50.446;7.904;2023-07-20T05:21:48;6.95;;;2.28;;
10473;SDS011;5284;50.446;7.904;2023-07-20T05:26:51;5.03;;;2.08;;
10473;SDS011;5284;50.446;7.904;2023-07-20T05:31:53;5.72;;;2.53;;
10473;SDS011;5284;50.446;7.904;2023-07-20T05:36:58;5.30;;;2.00;;
10473;SDS011;5284;50.446;7.904;2023-07-20T05:42:01;10.63;;;2.10;;
10473;SDS011;5284;50.446;7.904;2023-07-20T05:47:04;10.60;;;2.28;;
10473;SDS011;5284;50.446;7.904;2023-07-20T05:52:09;15.02;;;3.55;;
10473;SDS011;5284;50.446;7.904;2023-07-20T05:57:12;13.80;;;3.20;;
10473;SDS011;5284;50.446;7.904;2023-07-20T06:02:15;7.45;;;2.22;;
10473;SDS011;5284;50.446;7.904;2023-07-20T06:07:20;6.70;;;2.28;;
10473;SDS011;5284;50.446;7.904;2023-07-20T06:12:23;5.00;;;2.45;;
10473;SDS011;5284;50.446;7.904;2023-07-20T06:17:26;6.55;;;2.13;;
10473;SDS011;5284;50.446;7.904;2023-07-20T06:22:30;6.35;;;1.88;;
10473;SDS011;5284;50.446;7.904;2023-07-20T06:27:33;9.48;;;2.13;;
10473;SDS011;5284;50.446;7.904;2023-07-20T06:32:36;5.75;;;2.50;;
10473;SDS011;5284;50.446;7.904;2023-07-20T06:37:41;7.70;;;2.63;;
10473;SDS011;5284;50.446;7.904;2023-07-20T06:42:44;8.02;;;3.03;;
10473;SDS011;5284;50.446;7.904;2023-07-20T06:47:50;6.57;;;2.13;;
10473;SDS011;5284;50.446;7.904;2023-07-20T06:52:54;6.32;;;2.55;;
10473;SDS011;5284;50.446;7.904;2023-07-20T06:57:59;8.07;;;2.67;;
10473;SDS011;5284;50.446;7.904;2023-07-20T07:03:02;8.75;;;3.58;;
10473;SDS011;5284;50.446;7.904;2023-07-20T07:08:06;16.20;;;3.83;;
10473;SDS011;5284;50.446;7.904;2023-07-20T07:13:09;10.13;;;4.68;;
10473;SDS011;5284;50.446;7.904;2023-07-20T07:18:12;14.57;;;4.35;;
10473;SDS011;5284;50.446;7.904;2023-07-20T07:23:17;11.80;;;4.30;;
10473;SDS011;5284;50.446;7.904;2023-07-20T07:28:20;7.65;;;3.97;;
10473;SDS011;5284;50.446;7.904;2023-07-20T07:33:23;9.55;;;3.47;;
10473;SDS011;5284;50.446;7.904;2023-07-20T07:38:27;11.65;;;4.53;;
10473;SDS011;5284;50.446;7.904;2023-07-20T07:43:50;11.48;;;4.32;;
10473;SDS011;5284;50.446;7.904;2023-07-20T07:48:53;12.55;;;4.18;;
10473;SDS011;5284;50.446;7.904;2023-07-20T07:53:58;8.40;;;3.78;;
10473;SDS011;5284;50.446;7.904;2023-07-20T07:59:01;9.43;;;3.10;;
10473;SDS011;5284;50.446;7.904;2023-07-20T08:04:04;10.38;;;3.08;;
10473;SDS011;5284;50.446;7.904;2023-07-20T08:09:08;7.20;;;3.03;;
10473;SDS011;5284;50.446;7.904;2023-07-20T08:14:11;5.50;;;3.05;;
10473;SDS011;5284;50.446;7.904;2023-07-20T08:19:14;5.68;;;2.17;;
10473;SDS011;5284;50.446;7.904;2023-07-20T08:24:18;4.97;;;1.90;;
10473;SDS011;5284;50.446;7.904;2023-07-20T08:29:21;6.22;;;1.85;;
10473;SDS011;5284;50.446;7.904;2023-07-20T08:34:24;5.57;;;1.75;;
10473;SDS011;5284;50.446;7.904;2023-07-20T08:39:33;8.15;;;1.38;;
10473;SDS011;5284;50.446;7.904;2023-07-20T08:44:36;5.03;;;1.52;;
10473;SDS011;5284;50.446;7.904;2023-07-20T08:49:40;4.93;;;1.48;;
10473;SDS011;5284;50.446;7.904;2023-07-20T08:54:45;5.53;;;1.70;;
10473;SDS011;5284;50.446;7.904;2023-07-20T08:59:48;3.00;;;1.60;;
10473;SDS011;5284;50.446;7.904;2023-07-20T09:04:53;4.40;;;1.50;;
10473;SDS011;5284;50.446;7.904;2023-07-20T09:09:58;3.70;;;1.63;;
10473;SDS011;5284;50.446;7.904;2023-07-20T09:15:07;2.97;;;2.00;;
10473;SDS011;5284;50.446;7.904;2023-07-20T09:20:11;3.85;;;1.33;;
10473;SDS011;5284;50.446;7.904;2023-07-20T09:25:15;4.63;;;1.92;;
10473;SDS011;5284;50.446;7.904;2023-07-20T09:30:25;5.28;;;2.28;;
10473;SDS011;5284;50.446;7.904;2023-07-20T09:35:31;6.57;;;2.65;;
10473;SDS011;5284;50.446;7.904;2023-07-20T09:40:45;5.38;;;2.65;;
10473;SDS011;5284;50.446;7.904;2023-07-20T09:45:51;5.75;;;1.50;;
10473;SDS011;5284;50.446;7.904;2023-07-20T09:51:00;3.13;;;2.15;;
10473;SDS011;5284;50.446;7.904;2023-07-20T09:56:05;2.83;;;1.45;;
10473;SDS011;5284;50.446;7.904;2023-07-20T10:01:09;3.63;;;1.45;;
10473;SDS011;5284;50.446;7.904;2023-07-20T10:06:15;12.10;;;1.93;;
10473;SDS011;5284;50.446;7.904;2023-07-20T10:11:24;5.75;;;1.90;;
10473;SDS011;5284;50.446;7.904;2023-07-20T10:16:34;9.80;;;1.77;;
10473;SDS011;5284;50.446;7.904;2023-07-20T10:21:40;2.17;;;1.70;;
10473;SDS011;5284;50.446;7.904;2023-07-20T10:26:46;3.38;;;1.55;;
10473;SDS011;5284;50.446;7.904;2023-07-20T10:31:50;7.13;;;2.13;;
10473;SDS011;5284;50.446;7.904;2023-07-20T10:36:56;3.53;;;1.33;;
10473;SDS011;5284;50.446;7.904;2023-07-20T10:42:05;5.55;;;1.70;;
10473;SDS011;5284;50.446;7.904;2023-07-20T10:47:10;7.40;;;1.60;;
10473;SDS011;5284;50.446;7.904;2023-07-20T10:52:15;10.57;;;1.40;;
10473;SDS011;5284;50.446;7.904;2023-07-20T10:57:23;2.40;;;1.17;;
10473;SDS011;5284;50.446;7.904;2023-07-20T11:02:27;3.28;;;1.73;;
10473;SDS011;5284;50.446;7.904;2023-07-20T11:07:37;2.60;;;1.10;;
10473;SDS011;5284;50.446;7.904;2023-07-20T11:12:42;1.88;;;1.13;;
10473;SDS011;5284;50.446;7.904;2023-07-20T11:18:26;5.35;;;1.38;;
10473;SDS011;5284;50.446;7.904;2023-07-20T11:23:29;6.35;;;1.58;;
10473;SDS011;5284;50.446;7.904;2023-07-20T11:28:36;4.53;;;1.13;;
10473;SDS011;5284;50.446;7.904;2023-07-20T11:33:39;3.58;;;1.50;;
10473;SDS011;5284;50.446;7.904;2023-07-20T11:38:42;3.95;;;1.40;;
10473;SDS011;5284;50.446;7.904;2023-07-20T11:43:46;4.10;;;1.10;;
10473;SDS011;5284;50.446;7.904;2023-07-20T11:48:55;8.50;;;1.27;;
10473;SDS011;5284;50.446;7.904;2023-07-20T11:53:59;1.98;;;1.13;;
10473;SDS011;5284;50.446;7.904;2023-07-20T11:59:06;4.72;;;1.00;;
10473;SDS011;5284;50.446;7.904;2023-07-20T12:04:09;2.35;;;1.13;;
10473;SDS011;5284;50.446;7.904;2023-07-20T12:09:13;4.68;;;0.98;;
10473;SDS011;5284;50.446;7.904;2023-07-20T12:14:18;3.27;;;1.00;;
10473;SDS011;5284;50.446;7.904;2023-07-20T12:19:24;0.85;;;0.68;;
10473;SDS011;5284;50.446;7.904;2023-07-20T12:24:27;3.90;;;0.90;;
10473;SDS011;5284;50.446;7.904;2023-07-20T12:29:32;4.43;;;0.80;;
10473;SDS011;5284;50.446;7.904;2023-07-20T12:34:37;1.20;;;0.73;;
10473;SDS011;5284;50.446;7.904;2023-07-20T12:39:40;1.00;;;0.60;;
10473;SDS011;5284;50.446;7.904;2023-07-20T12:44:50;4.65;;;0.80;;
10473;SDS011;5284;50.446;7.904;2023-07-20T12:49:53;1.25;;;0.80;;
10473;SDS011;5284;50.446;7.904;2023-07-20T12:54:56;1.85;;;0.82;;
10473;SDS011;5284;50.446;7.904;2023-07-20T13:00:01;8.25;;;1.10;;
10473;SDS011;5284;50.446;7.904;2023-07-20T13:05:04;1.98;;;0.98;;
10473;SDS011;5284;50.446;7.904;2023-07-20T13:10:08;8.85;;;0.75;;
10473;SDS011;5284;50.446;7.904;2023-07-20T13:15:13;2.10;;;0.90;;
10473;SDS011;5284;50.446;7.904;2023-07-20T13:20:16;1.40;;;0.85;;
10473;SDS011;5284;50.446;7.904;2023-07-20T13:25:19;1.55;;;0.80;;
10473;SDS011;5284;50.446;7.904;2023-07-20T13:30:24;1.88;;;0.95;;
10473;SDS011;5284;50.446;7.904;2023-07-20T13:35:28;8.43;;;2.25;;
10473;SDS011;5284;50.446;7.904;2023-07-20T13:40:49;3.33;;;1.02;;
10473;SDS011;5284;50.446;7.904;2023-07-20T13:45:54;3.40;;;1.23;;
10473;SDS011;5284;50.446;7.904;2023-07-20T13:50:57;4.88;;;0.90;;
10473;SDS011;5284;50.446;7.904;2023-07-20T13:56:02;5.15;;;0.95;;
10473;SDS011;5284;50.446;7.904;2023-07-20T14:06:12;3.10;;;1.00;;
10473;SDS011;5284;50.446;7.904;2023-07-20T14:11:20;2.03;;;0.85;;
10473;SDS011;5284;50.446;7.904;2023-07-20T14:21:32;1.02;;;0.70;;
10473;SDS011;5284;50.446;7.904;2023-07-20T14:26:35;4.20;;;0.88;;
10473;SDS011;5284;50.446;7.904;2023-07-20T14:31:39;2.72;;;1.00;;
10473;SDS011;5284;50.446;7.904;2023-07-20T14:36:42;3.03;;;0.90;;
10473;SDS011;5284;50.446;7.904;2023-07-20T14:41:45;1.35;;;1.13;;
10473;SDS011;5284;50.446;7.904;2023-07-20T14:46:50;2.35;;;0.85;;
10473;SDS011;5284;50.446;7.904;2023-07-20T14:57:17;4.15;;;1.50;;
10473;SDS011;5284;50.446;7.904;2023-07-20T15:02:21;1.58;;;0.93;;
10473;SDS011;5284;50.446;7.904;2023-07-20T15:07:24;2.97;;;1.15;;
10473;SDS011;5284;50.446;7.904;2023-07-20T15:12:27;3.25;;;1.20;;
10473;SDS011;5284;50.446;7.904;2023-07-20T15:17:31;2.85;;;1.23;;
10473;SDS011;5284;50.446;7.904;2023-07-20T15:22:35;4.75;;;0.80;;
10473;SDS011;5284;50.446;7.904;2023-07-20T15:27:39;4.03;;;1.13;;
10473;SDS011;5284;50.446;7.904;2023-07-20T15:32:52;3.08;;;1.33;;
10473;SDS011;5284;50.446;7.904;2023-07-20T15:37:59;4.60;;;1.20;;
10473;SDS011;5284;50.446;7.904;2023-07-20T15:43:02;2.97;;;0.90;;
10473;SDS011;5284;50.446;7.904;2023-07-20T15:48:23;1.30;;;0.70;;
10473;SDS011;5284;50.446;7.904;2023-07-20T15:53:26;6.00;;;1.15;;
10473;SDS011;5284;50.446;7.904;2023-07-20T15:58:32;2.90;;;0.95;;
10473;SDS011;5284;50.446;7.904;2023-07-20T16:03:37;2.00;;;1.20;;
10473;SDS011;5284;50.446;7.904;2023-07-20T16:08:40;4.65;;;1.20;;
10473;SDS011;5284;50.446;7.904;2023-07-20T16:13:43;2.55;;;1.67;;
10473;SDS011;5284;50.446;7.904;2023-07-20T16:18:50;3.10;;;1.23;;
10473;SDS011;5284;50.446;7.904;2023-07-20T16:23:55;2.03;;;0.93;;
10473;SDS011;5284;50.446;7.904;2023-07-20T16:28:58;1.55;;;1.17;;
10473;SDS011;5284;50.446;7.904;2023-07-20T16:34:07;2.38;;;0.90;;
10473;SDS011;5284;50.446;7.904;2023-07-20T16:39:09;1.98;;;0.70;;
10473;SDS011;5284;50.446;7.904;2023-07-20T16:44:15;1.92;;;0.90;;
10473;SDS011;5284;50.446;7.904;2023-07-20T16:49:19;1.80;;;0.98;;
10473;SDS011;5284;50.446;7.904;2023-07-20T16:54:22;4.07;;;1.10;;
10473;SDS011;5284;50.446;7.904;2023-07-20T16:59:25;5.78;;;1.20;;
10473;SDS011;5284;50.446;7.904;2023-07-20T17:04:29;3.58;;;1.33;;
10473;SDS011;5284;50.446;7.904;2023-07-20T17:09:33;7.10;;;2.10;;
10473;SDS011;5284;50.446;7.904;2023-07-20T17:14:37;8.05;;;1.80;;
10473;SDS011;5284;50.446;7.904;2023-07-20T17:19:41;6.88;;;2.25;;
10473;SDS011;5284;50.446;7.904;2023-07-20T17:24:44;2.17;;;1.20;;
10473;SDS011;5284;50.446;7.904;2023-07-20T17:29:50;4.20;;;1.00;;
10473;SDS011;5284;50.446;7.904;2023-07-20T17:34:54;5.10;;;2.42;;
10473;SDS011;5284;50.446;7.904;2023-07-20T17:39:58;1.73;;;1.15;;
10473;SDS011;5284;50.446;7.904;2023-07-20T17:45:13;3.83;;;0.97;;
10473;SDS011;5284;50.446;7.904;2023-07-20T17:50:17;7.07;;;1.35;;
10473;SDS011;5284;50.446;7.904;2023-07-20T17:55:20;4.95;;;1.00;;
10473;SDS011;5284;50.446;7.904;2023-07-20T18:00:23;2.20;;;1.20;;
10473;SDS011;5284;50.446;7.904;2023-07-20T18:05:30;5.53;;;1.27;;
10473;SDS011;5284;50.446;7.904;2023-07-20T18:10:34;1.60;;;0.90;;
10473;SDS011;5284;50.446;7.904;2023-07-20T18:15:37;2.58;;;1.42;;
10473;SDS011;5284;50.446;7.904;2023-07-20T18:20:41;1.40;;;0.75;;
10473;SDS011;5284;50.446;7.904;2023-07-20T18:25:44;3.92;;;1.20;;
10473;SDS011;5284;50.446;7.904;2023-07-20T18:30:47;5.05;;;1.30;;
10473;SDS011;5284;50.446;7.904;2023-07-20T18:35:53;1.65;;;1.10;;
10473;SDS011;5284;50.446;7.904;2023-07-20T18:40:56;2.57;;;0.87;;
10473;SDS011;5284;50.446;7.904;2023-07-20T18:45:59;1.48;;;0.90;;
10473;SDS011;5284;50.446;7.904;2023-07-20T18:51:03;3.67;;;1.00;;
10473;SDS011;5284;50.446;7.904;2023-07-20T19:01:11;1.88;;;1.00;;
10473;SDS011;5284;50.446;7.904;2023-07-20T19:06:16;2.92;;;0.80;;
10473;SDS011;5284;50.446;7.904;2023-07-20T19:11:19;1.92;;;1.20;;
10473;SDS011;5284;50.446;7.904;2023-07-20T19:16:25;18.40;;;1.53;;
10473;SDS011;5284;50.446;7.904;2023-07-20T19:21:30;2.55;;;1.30;;
10473;SDS011;5284;50.446;7.904;2023-07-20T19:26:33;4.68;;;1.38;;
10473;SDS011;5284;50.446;7.904;2023-07-20T19:31:36;4.97;;;1.30;;
10473;SDS011;5284;50.446;7.904;2023-07-20T19:36:40;5.57;;;2.05;;
10473;SDS011;5284;50.446;7.904;2023-07-20T19:41:44;5.10;;;1.35;;
10473;SDS011;5284;50.446;7.904;2023-07-20T19:46:47;2.88;;;1.40;;
10473;SDS011;5284;50.446;7.904;2023-07-20T19:51:51;2.80;;;1.38;;
10473;SDS011;5284;50.446;7.904;2023-07-20T19:56:54;1.77;;;1.13;;
10473;SDS011;5284;50.446;7.904;2023-07-20T20:01:57;2.30;;;1.40;;
10473;SDS011;5284;50.446;7.904;2023-07-20T20:07:01;8.00;;;1.98;;
10473;SDS011;5284;50.446;7.904;2023-07-20T20:12:09;2.67;;;1.20;;
10473;SDS011;5284;50.446;7.904;2023-07-20T20:17:14;3.35;;;1.48;;
10473;SDS011;5284;50.446;7.904;2023-07-20T20:22:21;5.13;;;2.50;;
10473;SDS011;5284;50.446;7.904;2023-07-20T20:27:24;18.50;;;4.60;;
10473;SDS011;5284;50.446;7.904;2023-07-20T20:32:27;11.07;;;2.10;;
10473;SDS011;5284;50.446;7.904;2023-07-20T20:37:31;6.20;;;2.38;;
10473;SDS011;5284;50.446;7.904;2023-07-20T20:42:34;2.70;;;1.40;;
10473;SDS011;5284;50.446;7.904;2023-07-20T20:47:37;6.05;;;1.70;;
10473;SDS011;5284;50.446;7.904;2023-07-20T20:52:42;4.05;;;1.77;;
10473;SDS011;5284;50.446;7.904;2023-07-20T20:57:45;6.72;;;2.50;;
10473;SDS011;5284;50.446;7.904;2023-07-20T21:02:49;8.32;;;1.98;;
10473;SDS011;5284;50.446;7.904;2023-07-20T21:07:54;5.65;;;1.67;;
10473;SDS011;5284;50.446;7.904;2023-07-20T21:12:59;7.73;;;3.07;;
10473;SDS011;5284;50.446;7.904;2023-07-20T21:18:02;3.55;;;1.58;;
10473;SDS011;5284;50.446;7.904;2023-07-20T21:23:06;1.75;;;1.23;;
10473;SDS011;5284;50.446;7.904;2023-07-20T21:28:09;6.57;;;1.80;;
10473;SDS011;5284;50.446;7.904;2023-07-20T21:33:12;7.88;;;2.15;;
10473;SDS011;5284;50.446;7.904;2023-07-20T21:38:17;3.25;;;1.80;;
10473;SDS011;5284;50.446;7.904;2023-07-20T21:43:20;4.68;;;2.10;;
10473;SDS011;5284;50.446;7.904;2023-07-20T21:48:22;3.47;;;2.10;;
10473;SDS011;5284;50.446;7.904;2023-07-20T21:53:27;3.95;;;2.17;;
10473;SDS011;5284;50.446;7.904;2023-07-20T21:58:30;6.25;;;1.92;;
10473;SDS011;5284;50.446;7.904;2023-07-20T22:03:33;5.68;;;2.05;;
10473;SDS011;5284;50.446;7.904;2023-07-20T22:08:38;5.82;;;2.00;;
10473;SDS011;5284;50.446;7.904;2023-07-20T22:13:42;4.20;;;1.90;;
10473;SDS011;5284;50.446;7.904;2023-07-20T22:18:44;4.88;;;1.98;;
10473;SDS011;5284;50.446;7.904;2023-07-20T22:23:51;3.85;;;1.88;;
10473;SDS011;5284;50.446;7.904;2023-07-20T22:28:54;3.72;;;2.03;;
10473;SDS011;5284;50.446;7.904;2023-07-20T22:33:57;9.57;;;1.80;;
10473;SDS011;5284;50.446;7.904;2023-07-20T22:39:01;1.85;;;1.38;;
10473;SDS011;5284;50.446;7.904;2023-07-20T22:44:04;4.13;;;2.03;;
10473;SDS011;5284;50.446;7.904;2023-07-20T22:49:08;4.30;;;1.75;;
10473;SDS011;5284;50.446;7.904;2023-07-20T22:54:12;11.25;;;1.58;;
10473;SDS011;5284;50.446;7.904;2023-07-20T22:59:16;3.30;;;1.83;;
10473;SDS011;5284;50.446;7.904;2023-07-20T23:04:18;5.88;;;2.00;;
10473;SDS011;5284;50.446;7.904;2023-07-20T23:09:23;4.53;;;2.03;;
10473;SDS011;5284;50.446;7.904;2023-07-20T23:14:26;3.50;;;1.95;;
10473;SDS011;5284;50.446;7.904;2023-07-20T23:19:29;3.20;;;1.52;;
10473;SDS011;5284;50.446;7.904;2023-07-20T23:24:34;2.72;;;1.40;;
10473;SDS011;5284;50.446;7.904;2023-07-20T23:29:37;7.35;;;1.73;;
10473;SDS011;5284;50.446;7.904;2023-07-20T23:34:39;4.75;;;1.90;;
10473;SDS011;5284;50.446;7.904;2023-07-20T23:39:44;5.45;;;1.90;;
10473;SDS011;5284;50.446;7.904;2023-07-20T23:44:48;4.43;;;1.90;;
10473;SDS011;5284;50.446;7.904;2023-07-20T23:49:54;11.90;;;3.05;;
10473;SDS011;5284;50.446;7.904;2023-07-20T23:54:58;10.57;;;1.88;;
